sensor_id;sensor_type;location;lat;lon;timestamp;temperature;humidity
20777;DHT22;10548;47.504;8.248;2024-01-15T00:01:35;1.20;99.90
20777;DHT22;10548;47.504;8.248;2024-01-15T00:06:30;1.20;99.90
20777;DHT22;10548;47.504;8.248;2024-01-15T00:08:59;1.10;99.90
20777;DHT22;10548;47.504;8.248;2024-01-15T00:11:27;1.00;99.90
20777;DHT22;10548;47.504;8.248;2024-01-15T00:13:54;1.00;99.90
20777;DHT22;10548;47.504;8.248;2024-01-15T00:16:21;1.00;99.90
20777;DHT22;10548;47.504;8.248;2024-01-15T00:18:48;1.00;99.90
20777;DHT22;10548;47.504;8.248;2024-01-15T00:21:16;1.00;99.90
20777;DHT22;10548;47.504;8.248;2024-01-15T00:23:43;1.00;99.90
20777;DHT22;10548;47.504;8.248;2024-01-15T00:26:13;1.00;99.90
20777;DHT22;10548;47.504;8.248;2024-01-15T00:28:41;1.00;99.90
20777;DHT22;10548;47.504;8.248;2024-01-15T00:31:08;1.10;99.90
20777;DHT22;10548;47.504;8.248;2024-01-15T00:33:36;1.10;99.90
20777;DHT22;10548;47.504;8.248;2024-01-15T00:36:04;1.00;99.90
20777;DHT22;10548;47.504;8.248;2024-01-15T00:38:31;1.00;99.90
20777;DHT22;10548;47.504;8.248;2024-01-15T00:40:59;1.00;99.90
20777;DHT22;10548;47.504;8.248;2024-01-15T00:43:26;1.00;99.90
20777;DHT22;10548;47.504;8.248;2024-01-15T00:45:53;1.00;99.90
20777;DHT22;10548;47.504;8.248;2024-01-15T00:48:21;1.00;99.90
20777;DHT22;10548;47.504;8.248;2024-01-15T00:50:48;1.00;99.90
20777;DHT22;10548;47.504;8.248;2024-01-15T00:53:16;1.10;99.90
20777;DHT22;10548;47.504;8.248;2024-01-15T00:55:43;1.00;99.90
20777;DHT22;10548;47.504;8.248;2024-01-15T00:58:10;1.10;99.90
20777;DHT22;10548;47.504;8.248;2024-01-15T01:00:38;1.00;99.90
20777;DHT22;10548;47.504;8.248;2024-01-15T01:03:05;1.00;99.90
20777;DHT22;10548;47.504;8.248;2024-01-15T01:05:35;1.00;99.90
20777;DHT22;10548;47.504;8.248;2024-01-15T01:08:03;0.90;99.90
20777;DHT22;10548;47.504;8.248;2024-01-15T01:10:30;0.90;99.90
20777;DHT22;10548;47.504;8.248;2024-01-15T01:12:58;0.90;99.90
20777;DHT22;10548;47.504;8.248;2024-01-15T01:15:25;0.90;99.90
20777;DHT22;10548;47.504;8.248;2024-01-15T01:17:52;-0.50;99.90
20777;DHT22;10548;47.504;8.248;2024-01-15T01:20:20;0.80;99.90
20777;DHT22;10548;47.504;8.248;2024-01-15T01:22:47;0.80;99.90
20777;DHT22;10548;47.504;8.248;2024-01-15T01:25:15;0.80;99.90
20777;DHT22;10548;47.504;8.248;2024-01-15T01:27:42;0.80;99.90
20777;DHT22;10548;47.504;8.248;2024-01-15T01:30:10;0.90;99.90
20777;DHT22;10548;47.504;8.248;2024-01-15T01:32:37;0.80;99.90
20777;DHT22;10548;47.504;8.248;2024-01-15T01:35:05;0.80;99.90
20777;DHT22;10548;47.504;8.248;2024-01-15T01:37:32;0.80;99.90
20777;DHT22;10548;47.504;8.248;2024-01-15T01:42:28;0.70;99.90
20777;DHT22;10548;47.504;8.248;2024-01-15T01:44:56;0.80;99.90
20777;DHT22;10548;47.504;8.248;2024-01-15T01:47:23;0.80;99.90
20777;DHT22;10548;47.504;8.248;2024-01-15T01:57:17;0.70;99.90
20777;DHT22;10548;47.504;8.248;2024-01-15T02:07:09;0.70;99.90
20777;DHT22;10548;47.504;8.248;2024-01-15T02:17:00;0.70;99.90
20777;DHT22;10548;47.504;8.248;2024-01-15T02:19:28;0.60;99.90
20777;DHT22;10548;47.504;8.248;2024-01-15T02:21:55;0.70;99.90
20777;DHT22;10548;47.504;8.248;2024-01-15T02:24:23;0.60;99.90
20777;DHT22;10548;47.504;8.248;2024-01-15T02:26:50;0.70;99.90
20777;DHT22;10548;47.504;8.248;2024-01-15T02:29:18;0.70;99.90
20777;DHT22;10548;47.504;8.248;2024-01-15T02:31:45;0.70;99.90
20777;DHT22;10548;47.504;8.248;2024-01-15T02:34:13;0.70;99.90
20777;DHT22;10548;47.504;8.248;2024-01-15T02:36:40;0.70;99.90
20777;DHT22;10548;47.504;8.248;2024-01-15T02:39:07;0.70;99.90
20777;DHT22;10548;47.504;8.248;2024-01-15T02:41:35;0.70;99.90
20777;DHT22;10548;47.504;8.248;2024-01-15T02:44:03;0.70;99.90
20777;DHT22;10548;47.504;8.248;2024-01-15T02:48:58;0.70;99.90
20777;DHT22;10548;47.504;8.248;2024-01-15T02:51:25;0.70;99.90
20777;DHT22;10548;47.504;8.248;2024-01-15T02:53:53;0.60;99.90
20777;DHT22;10548;47.504;8.248;2024-01-15T02:56:20;0.60;99.90
20777;DHT22;10548;47.504;8.248;2024-01-15T02:58:47;0.60;99.90
20777;DHT22;10548;47.504;8.248;2024-01-15T03:01:15;0.60;99.90
20777;DHT22;10548;47.504;8.248;2024-01-15T03:03:42;0.50;99.90
20777;DHT22;10548;47.504;8.248;2024-01-15T03:06:10;0.50;99.90
20777;DHT22;10548;47.504;8.248;2024-01-15T03:08:37;0.60;99.90
20777;DHT22;10548;47.504;8.248;2024-01-15T03:11:05;0.60;99.90
20777;DHT22;10548;47.504;8.248;2024-01-15T03:13:36;0.50;99.90
20777;DHT22;10548;47.504;8.248;2024-01-15T03:16:05;0.50;99.90
20777;DHT22;10548;47.504;8.248;2024-01-15T03:18:32;0.60;99.90
20777;DHT22;10548;47.504;8.248;2024-01-15T03:21:00;0.60;99.90
20777;DHT22;10548;47.504;8.248;2024-01-15T03:23:28;0.50;99.90
20777;DHT22;10548;47.504;8.248;2024-01-15T03:25:55;0.50;99.90
20777;DHT22;10548;47.504;8.248;2024-01-15T03:28:23;0.50;99.90
20777;DHT22;10548;47.504;8.248;2024-01-15T03:30:50;0.50;99.90
20777;DHT22;10548;47.504;8.248;2024-01-15T03:33:17;0.60;99.90
20777;DHT22;10548;47.504;8.248;2024-01-15T03:35:45;0.60;99.90
20777;DHT22;10548;47.504;8.248;2024-01-15T03:38:12;0.60;99.90
20777;DHT22;10548;47.504;8.248;2024-01-15T03:40:39;0.60;99.90
20777;DHT22;10548;47.504;8.248;2024-01-15T03:43:07;0.60;99.90
20777;DHT22;10548;47.504;8.248;2024-01-15T03:45:34;0.60;99.90
20777;DHT22;10548;47.504;8.248;2024-01-15T03:48:02;0.60;99.90
20777;DHT22;10548;47.504;8.248;2024-01-15T03:50:29;0.60;99.90
20777;DHT22;10548;47.504;8.248;2024-01-15T03:52:57;0.70;99.90
20777;DHT22;10548;47.504;8.248;2024-01-15T03:55:24;0.70;99.90
20777;DHT22;10548;47.504;8.248;2024-01-15T03:57:51;0.60;99.90
20777;DHT22;10548;47.504;8.248;2024-01-15T04:00:19;0.70;99.90
20777;DHT22;10548;47.504;8.248;2024-01-15T04:02:46;0.60;99.90
20777;DHT22;10548;47.504;8.248;2024-01-15T04:05:14;0.60;99.90
20777;DHT22;10548;47.504;8.248;2024-01-15T04:07:41;0.60;99.90
20777;DHT22;10548;47.504;8.248;2024-01-15T04:10:08;0.60;99.90
20777;DHT22;10548;47.504;8.248;2024-01-15T04:12:36;0.60;99.90
20777;DHT22;10548;47.504;8.248;2024-01-15T04:15:03;0.60;99.90
20777;DHT22;10548;47.504;8.248;2024-01-15T04:17:31;0.60;99.90
20777;DHT22;10548;47.504;8.248;2024-01-15T04:19:58;0.60;99.90
20777;DHT22;10548;47.504;8.248;2024-01-15T04:22:27;0.60;99.90
20777;DHT22;10548;47.504;8.248;2024-01-15T04:24:54;0.60;99.90
20777;DHT22;10548;47.504;8.248;2024-01-15T04:27:22;0.50;99.90
20777;DHT22;10548;47.504;8.248;2024-01-15T04:29:49;0.60;99.90
20777;DHT22;10548;47.504;8.248;2024-01-15T04:32:16;0.60;99.90
20777;DHT22;10548;47.504;8.248;2024-01-15T04:34:44;0.70;99.90
20777;DHT22;10548;47.504;8.248;2024-01-15T04:37:11;0.70;99.90
20777;DHT22;10548;47.504;8.248;2024-01-15T04:39:38;0.70;99.90
20777;DHT22;10548;47.504;8.248;2024-01-15T04:42:06;0.80;99.90
20777;DHT22;10548;47.504;8.248;2024-01-15T04:44:33;0.80;99.90
20777;DHT22;10548;47.504;8.248;2024-01-15T04:47:00;0.80;99.90
20777;DHT22;10548;47.504;8.248;2024-01-15T04:49:28;0.80;99.90
20777;DHT22;10548;47.504;8.248;2024-01-15T04:56:51;0.80;99.90
20777;DHT22;10548;47.504;8.248;2024-01-15T05:01:47;0.70;99.90
20777;DHT22;10548;47.504;8.248;2024-01-15T05:04:16;0.80;99.90
20777;DHT22;10548;47.504;8.248;2024-01-15T05:06:43;0.70;99.90
20777;DHT22;10548;47.504;8.248;2024-01-15T05:09:10;0.70;99.90
20777;DHT22;10548;47.504;8.248;2024-01-15T05:11:38;0.70;99.90
20777;DHT22;10548;47.504;8.248;2024-01-15T05:14:05;0.70;99.90
20777;DHT22;10548;47.504;8.248;2024-01-15T05:26:23;0.70;99.90
20777;DHT22;10548;47.504;8.248;2024-01-15T05:28:51;0.60;99.90
20777;DHT22;10548;47.504;8.248;2024-01-15T05:31:18;0.60;99.90
20777;DHT22;10548;47.504;8.248;2024-01-15T05:43:36;0.60;99.90
20777;DHT22;10548;47.504;8.248;2024-01-15T05:46:03;0.70;99.90
20777;DHT22;10548;47.504;8.248;2024-01-15T05:48:31;0.70;99.90
20777;DHT22;10548;47.504;8.248;2024-01-15T05:50:58;0.70;99.90
20777;DHT22;10548;47.504;8.248;2024-01-15T05:53:26;0.80;99.90
20777;DHT22;10548;47.504;8.248;2024-01-15T05:55:53;0.80;99.90
20777;DHT22;10548;47.504;8.248;2024-01-15T05:58:23;0.80;99.90
20777;DHT22;10548;47.504;8.248;2024-01-15T06:00:50;0.70;99.90
20777;DHT22;10548;47.504;8.248;2024-01-15T06:03:17;0.70;99.90
20777;DHT22;10548;47.504;8.248;2024-01-15T06:05:45;0.80;99.90
20777;DHT22;10548;47.504;8.248;2024-01-15T06:08:12;0.80;99.90
20777;DHT22;10548;47.504;8.248;2024-01-15T06:10:41;0.80;99.90
20777;DHT22;10548;47.504;8.248;2024-01-15T06:13:09;0.70;99.90
20777;DHT22;10548;47.504;8.248;2024-01-15T06:15:36;0.70;99.90
20777;DHT22;10548;47.504;8.248;2024-01-15T06:18:04;0.80;99.90
20777;DHT22;10548;47.504;8.248;2024-01-15T06:20:32;0.80;99.90
20777;DHT22;10548;47.504;8.248;2024-01-15T06:22:59;0.80;99.90
20777;DHT22;10548;47.504;8.248;2024-01-15T06:25:26;0.90;99.90
20777;DHT22;10548;47.504;8.248;2024-01-15T06:27:53;0.90;99.90
20777;DHT22;10548;47.504;8.248;2024-01-15T06:30:21;0.90;99.90
20777;DHT22;10548;47.504;8.248;2024-01-15T06:32:48;0.90;99.90
20777;DHT22;10548;47.504;8.248;2024-01-15T06:35:16;0.80;99.90
20777;DHT22;10548;47.504;8.248;2024-01-15T06:37:46;0.90;99.90
20777;DHT22;10548;47.504;8.248;2024-01-15T06:40:13;0.90;99.90
20777;DHT22;10548;47.504;8.248;2024-01-15T06:42:41;0.90;99.90
20777;DHT22;10548;47.504;8.248;2024-01-15T06:45:09;0.90;99.90
20777;DHT22;10548;47.504;8.248;2024-01-15T06:47:36;0.90;99.90
20777;DHT22;10548;47.504;8.248;2024-01-15T06:50:04;0.90;99.90
20777;DHT22;10548;47.504;8.248;2024-01-15T06:52:34;0.80;99.90
20777;DHT22;10548;47.504;8.248;2024-01-15T06:55:01;0.80;99.90
20777;DHT22;10548;47.504;8.248;2024-01-15T06:57:28;0.80;99.90
20777;DHT22;10548;47.504;8.248;2024-01-15T06:59:56;0.80;99.90
20777;DHT22;10548;47.504;8.248;2024-01-15T07:02:23;0.80;99.90
20777;DHT22;10548;47.504;8.248;2024-01-15T07:04:50;0.80;99.90
20777;DHT22;10548;47.504;8.248;2024-01-15T07:07:18;0.80;99.90
20777;DHT22;10548;47.504;8.248;2024-01-15T07:09:45;0.80;99.90
20777;DHT22;10548;47.504;8.248;2024-01-15T07:12:12;0.90;99.90
20777;DHT22;10548;47.504;8.248;2024-01-15T07:14:40;0.90;99.90
20777;DHT22;10548;47.504;8.248;2024-01-15T07:17:07;0.90;99.90
20777;DHT22;10548;47.504;8.248;2024-01-15T07:22:02;0.90;99.90
20777;DHT22;10548;47.504;8.248;2024-01-15T07:24:30;0.90;99.90
20777;DHT22;10548;47.504;8.248;2024-01-15T07:26:57;1.00;99.90
20777;DHT22;10548;47.504;8.248;2024-01-15T07:29:24;1.00;99.90
20777;DHT22;10548;47.504;8.248;2024-01-15T07:31:52;0.90;99.90
20777;DHT22;10548;47.504;8.248;2024-01-15T07:34:20;0.90;99.90
20777;DHT22;10548;47.504;8.248;2024-01-15T07:36:49;0.90;99.90
20777;DHT22;10548;47.504;8.248;2024-01-15T07:39:17;1.00;99.90
20777;DHT22;10548;47.504;8.248;2024-01-15T07:41:44;1.00;99.90
20777;DHT22;10548;47.504;8.248;2024-01-15T07:44:11;1.10;99.90
20777;DHT22;10548;47.504;8.248;2024-01-15T07:46:38;1.10;99.90
20777;DHT22;10548;47.504;8.248;2024-01-15T07:49:06;1.10;99.90
20777;DHT22;10548;47.504;8.248;2024-01-15T08:01:25;1.30;99.90
20777;DHT22;10548;47.504;8.248;2024-01-15T08:03:53;1.20;99.90
20777;DHT22;10548;47.504;8.248;2024-01-15T08:08:50;1.20;99.90
20777;DHT22;10548;47.504;8.248;2024-01-15T08:11:17;1.20;99.90
20777;DHT22;10548;47.504;8.248;2024-01-15T08:13:44;1.20;99.90
20777;DHT22;10548;47.504;8.248;2024-01-15T08:16:12;1.20;99.90
20777;DHT22;10548;47.504;8.248;2024-01-15T08:18:41;1.10;99.90
20777;DHT22;10548;47.504;8.248;2024-01-15T08:28:33;1.10;99.90
20777;DHT22;10548;47.504;8.248;2024-01-15T08:31:01;1.20;99.90
20777;DHT22;10548;47.504;8.248;2024-01-15T08:33:30;1.20;99.90
20777;DHT22;10548;47.504;8.248;2024-01-15T08:35:57;1.10;99.90
20777;DHT22;10548;47.504;8.248;2024-01-15T08:38:24;1.20;99.90
20777;DHT22;10548;47.504;8.248;2024-01-15T08:40:52;1.20;99.90
20777;DHT22;10548;47.504;8.248;2024-01-15T08:43:20;1.20;99.90
20777;DHT22;10548;47.504;8.248;2024-01-15T08:45:47;1.20;99.90
20777;DHT22;10548;47.504;8.248;2024-01-15T08:48:15;1.20;99.90
20777;DHT22;10548;47.504;8.248;2024-01-15T08:50:43;1.30;99.90
20777;DHT22;10548;47.504;8.248;2024-01-15T08:53:13;1.30;99.90
20777;DHT22;10548;47.504;8.248;2024-01-15T08:55:41;1.40;99.90
20777;DHT22;10548;47.504;8.248;2024-01-15T08:58:11;1.40;99.90
20777;DHT22;10548;47.504;8.248;2024-01-15T09:00:38;1.50;99.90
20777;DHT22;10548;47.504;8.248;2024-01-15T09:03:06;1.50;99.90
20777;DHT22;10548;47.504;8.248;2024-01-15T09:05:35;1.50;99.90
20777;DHT22;10548;47.504;8.248;2024-01-15T09:08:03;1.60;99.90
20777;DHT22;10548;47.504;8.248;2024-01-15T09:10:30;1.70;99.90
20777;DHT22;10548;47.504;8.248;2024-01-15T09:12:58;1.70;99.90
20777;DHT22;10548;47.504;8.248;2024-01-15T09:15:25;1.60;99.90
20777;DHT22;10548;47.504;8.248;2024-01-15T09:17:52;1.70;99.90
20777;DHT22;10548;47.504;8.248;2024-01-15T09:20:20;1.70;99.90
20777;DHT22;10548;47.504;8.248;2024-01-15T09:22:47;1.80;99.90
20777;DHT22;10548;47.504;8.248;2024-01-15T09:25:14;1.70;99.90
20777;DHT22;10548;47.504;8.248;2024-01-15T09:27:42;1.70;99.90
20777;DHT22;10548;47.504;8.248;2024-01-15T09:30:10;1.80;99.90
20777;DHT22;10548;47.504;8.248;2024-01-15T09:32:38;1.80;99.90
20777;DHT22;10548;47.504;8.248;2024-01-15T09:35:06;1.80;99.90
20777;DHT22;10548;47.504;8.248;2024-01-15T09:37:33;1.60;99.90
20777;DHT22;10548;47.504;8.248;2024-01-15T09:40:13;1.70;99.90
20777;DHT22;10548;47.504;8.248;2024-01-15T09:42:45;1.60;99.90
20777;DHT22;10548;47.504;8.248;2024-01-15T09:45:13;1.50;99.90
20777;DHT22;10548;47.504;8.248;2024-01-15T09:47:41;1.50;99.90
20777;DHT22;10548;47.504;8.248;2024-01-15T09:50:13;1.50;99.90
20777;DHT22;10548;47.504;8.248;2024-01-15T09:52:43;1.50;99.90
20777;DHT22;10548;47.504;8.248;2024-01-15T09:55:12;1.40;99.90
20777;DHT22;10548;47.504;8.248;2024-01-15T09:57:40;1.50;99.90
20777;DHT22;10548;47.504;8.248;2024-01-15T10:00:08;1.50;99.90
20777;DHT22;10548;47.504;8.248;2024-01-15T10:02:38;1.40;99.90
20777;DHT22;10548;47.504;8.248;2024-01-15T10:05:06;1.50;99.90
20777;DHT22;10548;47.504;8.248;2024-01-15T10:07:35;1.50;99.90
20777;DHT22;10548;47.504;8.248;2024-01-15T10:10:03;1.50;99.90
20777;DHT22;10548;47.504;8.248;2024-01-15T10:12:30;1.60;99.90
20777;DHT22;10548;47.504;8.248;2024-01-15T10:14:58;1.70;99.90
20777;DHT22;10548;47.504;8.248;2024-01-15T10:17:25;1.40;99.90
20777;DHT22;10548;47.504;8.248;2024-01-15T10:19:55;1.80;99.90
20777;DHT22;10548;47.504;8.248;2024-01-15T10:22:23;2.00;99.90
20777;DHT22;10548;47.504;8.248;2024-01-15T10:24:51;2.20;99.90
20777;DHT22;10548;47.504;8.248;2024-01-15T10:27:19;2.30;99.90
20777;DHT22;10548;47.504;8.248;2024-01-15T10:29:46;2.40;99.90
20777;DHT22;10548;47.504;8.248;2024-01-15T10:32:13;2.70;99.90
20777;DHT22;10548;47.504;8.248;2024-01-15T10:34:41;2.90;99.90
20777;DHT22;10548;47.504;8.248;2024-01-15T10:37:10;3.10;99.90
20777;DHT22;10548;47.504;8.248;2024-01-15T10:39:37;2.70;99.90
20777;DHT22;10548;47.504;8.248;2024-01-15T10:42:05;2.50;99.90
20777;DHT22;10548;47.504;8.248;2024-01-15T10:44:34;2.60;99.90
20777;DHT22;10548;47.504;8.248;2024-01-15T10:47:02;2.70;99.90
20777;DHT22;10548;47.504;8.248;2024-01-15T10:49:31;2.70;99.90
20777;DHT22;10548;47.504;8.248;2024-01-15T10:52:03;2.90;99.90
20777;DHT22;10548;47.504;8.248;2024-01-15T10:54:32;2.70;99.90
20777;DHT22;10548;47.504;8.248;2024-01-15T10:56:59;2.70;99.90
20777;DHT22;10548;47.504;8.248;2024-01-15T10:59:27;2.80;99.90
20777;DHT22;10548;47.504;8.248;2024-01-15T11:01:55;2.70;99.90
20777;DHT22;10548;47.504;8.248;2024-01-15T11:04:23;2.80;99.90
20777;DHT22;10548;47.504;8.248;2024-01-15T11:06:55;2.80;99.90
20777;DHT22;10548;47.504;8.248;2024-01-15T11:09:24;3.00;99.90
20777;DHT22;10548;47.504;8.248;2024-01-15T11:12:06;3.20;99.90
20777;DHT22;10548;47.504;8.248;2024-01-15T11:14:34;3.40;99.90
20777;DHT22;10548;47.504;8.248;2024-01-15T11:17:02;3.40;99.90
20777;DHT22;10548;47.504;8.248;2024-01-15T11:19:46;3.30;99.90
20777;DHT22;10548;47.504;8.248;2024-01-15T11:22:50;3.50;99.90
20777;DHT22;10548;47.504;8.248;2024-01-15T11:25:20;3.80;97.80
20777;DHT22;10548;47.504;8.248;2024-01-15T11:27:51;3.70;97.10
20777;DHT22;10548;47.504;8.248;2024-01-15T11:30:24;3.80;96.80
20777;DHT22;10548;47.504;8.248;2024-01-15T11:32:53;3.60;95.50
20777;DHT22;10548;47.504;8.248;2024-01-15T11:35:20;3.60;94.30
20777;DHT22;10548;47.504;8.248;2024-01-15T11:38:07;3.60;94.00
20777;DHT22;10548;47.504;8.248;2024-01-15T11:40:39;3.40;93.40
20777;DHT22;10548;47.504;8.248;2024-01-15T11:43:06;3.40;93.60
20777;DHT22;10548;47.504;8.248;2024-01-15T11:45:34;3.60;95.40
20777;DHT22;10548;47.504;8.248;2024-01-15T11:48:15;3.70;95.60
20777;DHT22;10548;47.504;8.248;2024-01-15T11:50:46;3.80;94.50
20777;DHT22;10548;47.504;8.248;2024-01-15T11:53:33;3.80;94.10
20777;DHT22;10548;47.504;8.248;2024-01-15T11:56:09;3.80;93.90
20777;DHT22;10548;47.504;8.248;2024-01-15T11:58:38;4.00;94.60
20777;DHT22;10548;47.504;8.248;2024-01-15T12:01:06;5.60;91.20
20777;DHT22;10548;47.504;8.248;2024-01-15T12:03:33;6.80;81.80
20777;DHT22;10548;47.504;8.248;2024-01-15T12:06:01;7.70;73.00
20777;DHT22;10548;47.504;8.248;2024-01-15T12:08:29;9.20;64.00
20777;DHT22;10548;47.504;8.248;2024-01-15T12:10:56;9.00;60.20
20777;DHT22;10548;47.504;8.248;2024-01-15T12:13:24;8.80;58.60
20777;DHT22;10548;47.504;8.248;2024-01-15T12:15:51;9.40;53.70
20777;DHT22;10548;47.504;8.248;2024-01-15T12:18:19;9.00;53.00
20777;DHT22;10548;47.504;8.248;2024-01-15T12:20:47;7.50;58.20
20777;DHT22;10548;47.504;8.248;2024-01-15T12:28:12;4.40;86.50
20777;DHT22;10548;47.504;8.248;2024-01-15T12:30:39;3.90;90.50
20777;DHT22;10548;47.504;8.248;2024-01-15T12:33:07;3.50;93.80
20777;DHT22;10548;47.504;8.248;2024-01-15T12:43:05;3.30;99.90
20777;DHT22;10548;47.504;8.248;2024-01-15T12:45:35;3.40;99.90
20777;DHT22;10548;47.504;8.248;2024-01-15T12:48:03;3.00;99.90
20777;DHT22;10548;47.504;8.248;2024-01-15T12:53:02;3.00;99.90
20777;DHT22;10548;47.504;8.248;2024-01-15T12:57:57;2.90;99.90
20777;DHT22;10548;47.504;8.248;2024-01-15T13:05:22;2.70;99.90
20777;DHT22;10548;47.504;8.248;2024-01-15T13:07:51;2.60;99.90
20777;DHT22;10548;47.504;8.248;2024-01-15T13:10:18;2.70;99.90
20777;DHT22;10548;47.504;8.248;2024-01-15T13:12:45;2.70;99.90
20777;DHT22;10548;47.504;8.248;2024-01-15T13:20:11;2.60;99.90
20777;DHT22;10548;47.504;8.248;2024-01-15T13:22:40;2.80;99.90
20777;DHT22;10548;47.504;8.248;2024-01-15T13:32:37;2.60;99.90
20777;DHT22;10548;47.504;8.248;2024-01-15T13:35:05;2.80;99.90
20777;DHT22;10548;47.504;8.248;2024-01-15T13:37:37;2.80;99.90
20777;DHT22;10548;47.504;8.248;2024-01-15T13:47:35;4.50;99.90
20777;DHT22;10548;47.504;8.248;2024-01-15T13:50:03;5.10;99.90
20777;DHT22;10548;47.504;8.248;2024-01-15T14:04:52;7.10;91.30
20777;DHT22;10548;47.504;8.248;2024-01-15T14:29:29;3.40;99.90
20777;DHT22;10548;47.504;8.248;2024-01-15T14:34:26;3.20;99.90
20777;DHT22;10548;47.504;8.248;2024-01-15T14:36:54;2.80;99.90
20777;DHT22;10548;47.504;8.248;2024-01-15T14:39:22;2.80;99.90
20777;DHT22;10548;47.504;8.248;2024-01-15T14:41:50;2.70;99.90
20777;DHT22;10548;47.504;8.248;2024-01-15T14:46:45;2.80;99.90
20777;DHT22;10548;47.504;8.248;2024-01-15T14:49:13;2.60;99.90
20777;DHT22;10548;47.504;8.248;2024-01-15T14:51:42;2.40;99.90
20777;DHT22;10548;47.504;8.248;2024-01-15T14:54:10;2.50;99.90
20777;DHT22;10548;47.504;8.248;2024-01-15T14:56:37;2.50;99.90
20777;DHT22;10548;47.504;8.248;2024-01-15T14:59:04;2.50;99.90
20777;DHT22;10548;47.504;8.248;2024-01-15T15:01:32;2.30;99.90
20777;DHT22;10548;47.504;8.248;2024-01-15T15:08:56;2.20;99.90
20777;DHT22;10548;47.504;8.248;2024-01-15T15:11:28;2.10;99.90
20777;DHT22;10548;47.504;8.248;2024-01-15T15:13:55;2.10;99.90
20777;DHT22;10548;47.504;8.248;2024-01-15T15:16:22;2.20;99.90
20777;DHT22;10548;47.504;8.248;2024-01-15T15:21:18;2.20;99.90
20777;DHT22;10548;47.504;8.248;2024-01-15T15:23:45;2.10;99.90
20777;DHT22;10548;47.504;8.248;2024-01-15T15:28:41;2.00;99.90
20777;DHT22;10548;47.504;8.248;2024-01-15T15:31:08;2.10;99.90
20777;DHT22;10548;47.504;8.248;2024-01-15T15:33:39;2.10;99.90
20777;DHT22;10548;47.504;8.248;2024-01-15T15:36:07;2.00;99.90
20777;DHT22;10548;47.504;8.248;2024-01-15T15:38:34;2.00;99.90
20777;DHT22;10548;47.504;8.248;2024-01-15T15:41:02;2.00;99.90
20777;DHT22;10548;47.504;8.248;2024-01-15T15:43:30;2.00;99.90
20777;DHT22;10548;47.504;8.248;2024-01-15T15:45:57;2.10;99.90
20777;DHT22;10548;47.504;8.248;2024-01-15T15:48:28;2.10;99.90
20777;DHT22;10548;47.504;8.248;2024-01-15T15:50:55;2.10;99.90
20777;DHT22;10548;47.504;8.248;2024-01-15T15:55:51;0.90;99.90
20777;DHT22;10548;47.504;8.248;2024-01-15T15:58:19;2.00;99.90
20777;DHT22;10548;47.504;8.248;2024-01-15T16:00:47;2.00;99.90
20777;DHT22;10548;47.504;8.248;2024-01-15T16:03:15;1.90;99.90
20777;DHT22;10548;47.504;8.248;2024-01-15T16:05:42;1.70;99.90
20777;DHT22;10548;47.504;8.248;2024-01-15T16:08:19;1.80;99.90
20777;DHT22;10548;47.504;8.248;2024-01-15T16:10:47;1.80;99.90
20777;DHT22;10548;47.504;8.248;2024-01-15T16:13:19;1.90;99.90
20777;DHT22;10548;47.504;8.248;2024-01-15T16:31:37;1.70;99.90
20777;DHT22;10548;47.504;8.248;2024-01-15T16:34:05;1.70;99.90
20777;DHT22;10548;47.504;8.248;2024-01-15T16:36:36;1.60;99.90
20777;DHT22;10548;47.504;8.248;2024-01-15T16:39:04;1.60;99.90
20777;DHT22;10548;47.504;8.248;2024-01-15T16:41:31;1.70;99.90
20777;DHT22;10548;47.504;8.248;2024-01-15T16:43:59;1.60;99.90
20777;DHT22;10548;47.504;8.248;2024-01-15T16:53:51;1.60;99.90
20777;DHT22;10548;47.504;8.248;2024-01-15T16:56:18;1.60;99.90
20777;DHT22;10548;47.504;8.248;2024-01-15T16:58:46;1.70;99.90
20777;DHT22;10548;47.504;8.248;2024-01-15T17:01:14;1.70;99.90
20777;DHT22;10548;47.504;8.248;2024-01-15T17:03:41;1.60;99.90
20777;DHT22;10548;47.504;8.248;2024-01-15T17:06:09;1.70;99.90
20777;DHT22;10548;47.504;8.248;2024-01-15T17:08:36;1.70;99.90
20777;DHT22;10548;47.504;8.248;2024-01-15T17:11:03;1.70;99.90
20777;DHT22;10548;47.504;8.248;2024-01-15T17:13:31;1.70;99.90
20777;DHT22;10548;47.504;8.248;2024-01-15T17:16:00;1.70;99.90
20777;DHT22;10548;47.504;8.248;2024-01-15T17:18:27;1.70;99.90
20777;DHT22;10548;47.504;8.248;2024-01-15T17:20:55;1.70;99.90
20777;DHT22;10548;47.504;8.248;2024-01-15T17:23:22;1.70;99.90
20777;DHT22;10548;47.504;8.248;2024-01-15T17:25:50;1.70;99.90
20777;DHT22;10548;47.504;8.248;2024-01-15T17:28:17;1.70;99.90
20777;DHT22;10548;47.504;8.248;2024-01-15T17:30:44;1.80;99.90
20777;DHT22;10548;47.504;8.248;2024-01-15T17:33:13;1.80;99.90
20777;DHT22;10548;47.504;8.248;2024-01-15T17:35:53;1.80;99.90
20777;DHT22;10548;47.504;8.248;2024-01-15T17:38:21;1.90;99.90
20777;DHT22;10548;47.504;8.248;2024-01-15T17:40:48;1.90;99.90
20777;DHT22;10548;47.504;8.248;2024-01-15T17:43:16;1.80;99.90
20777;DHT22;10548;47.504;8.248;2024-01-15T17:50:50;1.80;99.90
20777;DHT22;10548;47.504;8.248;2024-01-15T17:53:18;1.80;99.90
20777;DHT22;10548;47.504;8.248;2024-01-15T17:55:48;1.80;99.90
20777;DHT22;10548;47.504;8.248;2024-01-15T17:58:15;1.70;99.90
20777;DHT22;10548;47.504;8.248;2024-01-15T18:00:43;1.70;99.90
20777;DHT22;10548;47.504;8.248;2024-01-15T18:03:10;1.70;99.90
20777;DHT22;10548;47.504;8.248;2024-01-15T18:05:38;1.70;99.90
20777;DHT22;10548;47.504;8.248;2024-01-15T18:08:05;1.60;99.90
20777;DHT22;10548;47.504;8.248;2024-01-15T18:10:33;1.60;99.90
20777;DHT22;10548;47.504;8.248;2024-01-15T18:13:00;1.50;99.90
20777;DHT22;10548;47.504;8.248;2024-01-15T18:15:27;1.50;99.90
20777;DHT22;10548;47.504;8.248;2024-01-15T18:17:55;1.50;99.90
20777;DHT22;10548;47.504;8.248;2024-01-15T18:20:22;1.50;99.90
20777;DHT22;10548;47.504;8.248;2024-01-15T18:22:50;1.50;99.90
20777;DHT22;10548;47.504;8.248;2024-01-15T18:30:13;1.60;99.90
20777;DHT22;10548;47.504;8.248;2024-01-15T18:42:33;1.50;99.90
20777;DHT22;10548;47.504;8.248;2024-01-15T18:45:00;1.50;99.90
20777;DHT22;10548;47.504;8.248;2024-01-15T18:47:27;1.50;99.90
20777;DHT22;10548;47.504;8.248;2024-01-15T18:49:55;1.50;99.90
20777;DHT22;10548;47.504;8.248;2024-01-15T18:52:22;1.40;99.90
20777;DHT22;10548;47.504;8.248;2024-01-15T18:54:49;1.40;99.90
20777;DHT22;10548;47.504;8.248;2024-01-15T18:57:17;1.40;99.90
20777;DHT22;10548;47.504;8.248;2024-01-15T18:59:44;1.40;99.90
20777;DHT22;10548;47.504;8.248;2024-01-15T19:02:12;1.40;99.90
20777;DHT22;10548;47.504;8.248;2024-01-15T19:04:40;1.30;99.90
20777;DHT22;10548;47.504;8.248;2024-01-15T19:07:07;1.30;99.90
20777;DHT22;10548;47.504;8.248;2024-01-15T19:09:34;1.30;99.90
20777;DHT22;10548;47.504;8.248;2024-01-15T19:12:03;1.20;99.90
20777;DHT22;10548;47.504;8.248;2024-01-15T19:14:31;1.10;99.90
20777;DHT22;10548;47.504;8.248;2024-01-15T19:16:58;1.20;99.90
20777;DHT22;10548;47.504;8.248;2024-01-15T19:19:26;1.20;99.90
20777;DHT22;10548;47.504;8.248;2024-01-15T19:21:54;1.20;99.90
20777;DHT22;10548;47.504;8.248;2024-01-15T19:24:21;1.20;99.90
20777;DHT22;10548;47.504;8.248;2024-01-15T19:26:48;1.20;99.90